Time;durP1;ratioP1;P1;durP2;ratioP2;P2;SDS_P1;SDS_P2;PMS_P1;PMS_P2;Temp;Humidity;BMP_temperature;BMP_pressure;BME280_temperature;BME280_humidity;BME280_pressure;Samples;Min_cycle;Max_cycle;Signal;HPM_P1;HPM_P2
2022/05/05 00:05:54;;;;;;;1.25;0.60;;;;;;;;;;20832068;28;20045;-80
2022/05/05 00:15:56;;;;;;;0.85;0.80;;;;;;;;;;20813983;28;20057;-80
2022/05/05 00:25:58;;;;;;;1.10;0.90;;;;;;;;;;20796879;28;20511;-80
2022/05/05 00:36:00;;;;;;;1.48;0.70;;;;;;;;;;20829878;28;20491;-80
2022/05/05 00:46:03;;;;;;;1.05;0.80;;;;;;;;;;20829413;28;20073;-80
2022/05/05 00:56:06;;;;;;;1.42;0.85;;;;;;;;;;20828089;28;20100;-80
2022/05/05 01:06:08;;;;;;;1.20;0.90;;;;;;;;;;20827174;28;20049;-80
2022/05/05 01:16:10;;;;;;;0.75;0.75;;;;;;;;;;20808694;28;20462;-80
2022/05/05 01:36:32;;;;;;;0.88;0.70;;;;;;;;;;20825239;28;20083;-80
2022/05/05 01:46:33;;;;;;;1.90;0.80;;;;;;;;;;20824737;28;20053;-80
2022/05/05 01:56:36;;;;;;;1.30;1.10;;;;;;;;;;20806578;28;20053;-80
2022/05/05 02:06:38;;;;;;;1.13;0.70;;;;;;;;;;20823667;28;20132;-80
2022/05/05 02:16:39;;;;;;;1.27;0.75;;;;;;;;;;20849372;28;20061;-80
2022/05/05 02:26:41;;;;;;;5.57;1.00;;;;;;;;;;20850356;28;20049;-80
2022/05/05 02:47:04;;;;;;;2.08;0.90;;;;;;;;;;20849333;28;20100;-80
2022/05/05 02:57:06;;;;;;;1.48;1.08;;;;;;;;;;20849194;28;20085;-80
2022/05/05 03:07:08;;;;;;;1.02;0.90;;;;;;;;;;20830932;28;20078;-80
2022/05/05 03:17:09;;;;;;;1.13;0.70;;;;;;;;;;20847381;28;20115;-80
2022/05/05 03:27:11;;;;;;;0.70;0.60;;;;;;;;;;20835461;28;20049;-80
2022/05/05 03:37:13;;;;;;;0.75;0.70;;;;;;;;;;20834474;28;20454;-80
2022/05/05 03:47:15;;;;;;;0.95;0.70;;;;;;;;;;20833365;28;20103;-80
2022/05/05 03:57:16;;;;;;;0.73;0.73;;;;;;;;;;20831450;28;20430;-80
2022/05/05 04:07:18;;;;;;;1.33;0.88;;;;;;;;;;20831888;28;20037;-80
2022/05/05 04:17:20;;;;;;;0.82;0.73;;;;;;;;;;20830813;28;20064;-80
2022/05/05 04:27:21;;;;;;;0.70;0.68;;;;;;;;;;20812408;28;20148;-80
2022/05/05 04:37:23;;;;;;;1.40;0.70;;;;;;;;;;20812869;28;20495;-80
2022/05/05 04:47:25;;;;;;;1.00;0.63;;;;;;;;;;20811288;28;20069;-80
2022/05/05 04:57:27;;;;;;;0.90;0.80;;;;;;;;;;20810967;28;20045;-80
2022/05/05 05:07:29;;;;;;;0.60;0.60;;;;;;;;;;20793463;28;20083;-80
2022/05/05 05:17:30;;;;;;;1.25;0.68;;;;;;;;;;20808710;28;20060;-80
2022/05/05 05:27:32;;;;;;;0.90;0.70;;;;;;;;;;20826153;28;20045;-80
2022/05/05 05:37:34;;;;;;;1.85;0.85;;;;;;;;;;20825441;28;20132;-80
2022/05/05 05:47:36;;;;;;;1.25;0.73;;;;;;;;;;20823715;28;20127;-80
2022/05/05 05:57:38;;;;;;;1.05;0.90;;;;;;;;;;20823897;28;20049;-80
2022/05/05 06:07:39;;;;;;;0.63;0.60;;;;;;;;;;20824002;28;20103;-80
2022/05/05 06:17:41;;;;;;;0.52;0.52;;;;;;;;;;20823272;28;20053;-80
2022/05/05 06:27:43;;;;;;;1.60;0.80;;;;;;;;;;20805088;28;20128;-80
2022/05/05 06:37:51;;;;;;;1.73;0.80;;;;;;;;;;20822390;28;20053;-80
2022/05/05 06:47:54;;;;;;;0.73;0.65;;;;;;;;;;20822049;28;20052;-80
2022/05/05 06:57:55;;;;;;;0.88;0.63;;;;;;;;;;20828967;28;20088;-80
2022/05/05 07:07:57;;;;;;;0.63;0.60;;;;;;;;;;20819262;28;20088;-80
2022/05/05 07:17:59;;;;;;;0.70;0.50;;;;;;;;;;20836191;28;20483;-80
2022/05/05 07:28:01;;;;;;;0.80;0.50;;;;;;;;;;20818492;28;20084;-80
2022/05/05 07:38:02;;;;;;;0.98;0.52;;;;;;;;;;20817021;28;20049;-80
2022/05/05 07:48:05;;;;;;;0.75;0.60;;;;;;;;;;20815834;28;20061;-80
2022/05/05 07:58:06;;;;;;;1.05;0.93;;;;;;;;;;20815179;28;20057;-80
2022/05/05 08:08:08;;;;;;;0.80;0.55;;;;;;;;;;20831147;28;20045;-80
2022/05/05 08:18:10;;;;;;;1.05;0.60;;;;;;;;;;20831736;28;20057;-80
2022/05/05 08:28:30;;;;;;;0.45;0.45;;;;;;;;;;20830463;28;20084;-80
2022/05/05 08:38:32;;;;;;;1.40;0.60;;;;;;;;;;20829821;28;20420;-80
2022/05/05 08:48:34;;;;;;;0.75;0.50;;;;;;;;;;20828830;28;20041;-80
2022/05/05 08:58:35;;;;;;;0.63;0.55;;;;;;;;;;20828058;28;20055;-80
2022/05/05 09:08:37;;;;;;;0.63;0.63;;;;;;;;;;20809828;28;20054;-80
2022/05/05 09:18:39;;;;;;;0.82;0.50;;;;;;;;;;20824456;28;20115;-80
2022/05/05 09:28:40;;;;;;;1.13;0.60;;;;;;;;;;20826150;28;20049;-80
2022/05/05 09:38:53;;;;;;;1.02;0.55;;;;;;;;;;20807786;28;20049;-80
2022/05/05 09:49:09;;;;;;;0.98;0.88;;;;;;;;;;20824633;28;20434;-81
2022/05/05 09:59:14;;;;;;;0.83;0.60;;;;;;;;;;20824287;28;20132;-80
2022/05/05 10:09:18;;;;;;;0.80;0.55;;;;;;;;;;20823371;28;20044;-81
2022/05/05 10:19:20;;;;;;;0.95;0.60;;;;;;;;;;20805149;28;20053;-81
2022/05/05 10:29:31;;;;;;;1.70;0.88;;;;;;;;;;20806640;28;20057;-81
2022/05/05 10:39:47;;;;;;;0.80;0.80;;;;;;;;;;20839068;28;20083;-80
2022/05/05 10:49:48;;;;;;;1.20;0.80;;;;;;;;;;20838533;28;20718;-80
2022/05/05 11:00:09;;;;;;;1.52;1.00;;;;;;;;;;20820046;28;20072;-80
2022/05/05 11:10:30;;;;;;;0.98;0.70;;;;;;;;;;20835556;28;20144;-80
2022/05/05 11:30:52;;;;;;;1.00;0.88;;;;;;;;;;20835454;28;20049;-81
2022/05/05 11:41:16;;;;;;;1.08;0.82;;;;;;;;;;20834319;28;20057;-81
2022/05/05 11:51:21;;;;;;;1.42;0.95;;;;;;;;;;20833352;28;20042;-80
2022/05/05 12:01:41;;;;;;;;;;;;;;;;;;20833262;28;20087;-81
2022/05/05 12:11:43;;;;;;;1.60;0.90;;;;;;;;;;20831636;28;20402;-81
2022/05/05 12:21:52;;;;;;;1.13;1.00;;;;;;;;;;20831188;28;20053;-81
2022/05/05 12:31:58;;;;;;;1.48;1.15;;;;;;;;;;20813145;28;20099;-80
2022/05/05 12:42:08;;;;;;;1.27;1.17;;;;;;;;;;20829671;28;20176;-81
2022/05/05 13:02:30;;;;;;;1.60;1.20;;;;;;;;;;20827846;28;20080;-81
2022/05/05 13:12:31;;;;;;;1.00;0.90;;;;;;;;;;20826614;28;20507;-81
2022/05/05 13:22:33;;;;;;;1.10;1.00;;;;;;;;;;20825076;28;20462;-81
2022/05/05 13:32:35;;;;;;;0.90;0.90;;;;;;;;;;20792077;28;20065;-80
2022/05/05 13:42:37;;;;;;;1.10;0.98;;;;;;;;;;20807869;28;20061;-81
2022/05/05 13:52:43;;;;;;;1.10;1.00;;;;;;;;;;20824310;28;20049;-81
2022/05/05 14:02:45;;;;;;;2.33;1.25;;;;;;;;;;20806231;28;20053;-80
2022/05/05 14:12:46;;;;;;;1.35;1.25;;;;;;;;;;20822199;28;20057;-80
2022/05/05 14:22:48;;;;;;;1.85;1.25;;;;;;;;;;20805610;28;20488;-81
2022/05/05 14:32:50;;;;;;;1.55;1.13;;;;;;;;;;20805143;28;20041;-80
2022/05/05 14:42:52;;;;;;;1.15;1.05;;;;;;;;;;20822393;28;20061;-80
2022/05/05 14:52:55;;;;;;;1.17;0.90;;;;;;;;;;20821646;28;20081;-81
2022/05/05 15:02:56;;;;;;;1.30;1.20;;;;;;;;;;20804052;28;20297;-80
2022/05/05 15:12:59;;;;;;;1.33;1.20;;;;;;;;;;20821527;28;20332;-80
2022/05/05 15:23:00;;;;;;;1.60;1.23;;;;;;;;;;20833425;28;20494;-80
2022/05/05 15:33:02;;;;;;;2.03;1.27;;;;;;;;;;20817425;28;20057;-81
2022/05/05 15:43:04;;;;;;;0.95;0.88;;;;;;;;;;20800418;28;20045;-81
2022/05/05 15:53:06;;;;;;;1.10;1.00;;;;;;;;;;20799567;28;20356;-80
2022/05/05 16:03:08;;;;;;;1.00;0.90;;;;;;;;;;20815017;28;20053;-81
2022/05/05 16:13:09;;;;;;;1.75;1.20;;;;;;;;;;20831730;28;20092;-81
2022/05/05 16:23:11;;;;;;;1.30;1.17;;;;;;;;;;20813453;28;20076;-81
2022/05/05 16:33:13;;;;;;;1.83;1.30;;;;;;;;;;20828816;28;20042;-80
2022/05/05 16:43:15;;;;;;;1.15;0.93;;;;;;;;;;20829699;28;20068;-80
2022/05/05 16:53:23;;;;;;;1.65;1.30;;;;;;;;;;20828555;28;20050;-81
2022/05/05 17:03:25;;;;;;;1.40;1.30;;;;;;;;;;20827888;28;20160;-81
2022/05/05 17:13:27;;;;;;;1.33;1.23;;;;;;;;;;20809897;28;20399;-80
2022/05/05 17:23:28;;;;;;;1.33;1.20;;;;;;;;;;20809090;28;20046;-80
2022/05/05 17:33:30;;;;;;;1.20;1.10;;;;;;;;;;20825644;28;20045;-80
2022/05/05 17:43:32;;;;;;;1.02;0.93;;;;;;;;;;20824117;28;20062;-80
2022/05/05 17:53:34;;;;;;;1.50;1.40;;;;;;;;;;20824576;28;20049;-80
2022/05/05 18:03:43;;;;;;;2.05;1.40;;;;;;;;;;20823936;28;20140;-80
2022/05/05 18:13:45;;;;;;;2.03;1.17;;;;;;;;;;20823160;28;20437;-80
2022/05/05 18:23:46;;;;;;;1.33;1.23;;;;;;;;;;20822641;28;20053;-80
2022/05/05 18:33:48;;;;;;;2.33;1.67;;;;;;;;;;20822641;28;20052;-81
2022/05/05 18:43:50;;;;;;;1.60;1.50;;;;;;;;;;20806221;28;20132;-80
2022/05/05 18:53:52;;;;;;;2.47;1.80;;;;;;;;;;20795363;28;20053;-80
2022/05/05 19:03:55;;;;;;;2.60;1.70;;;;;;;;;;20837412;28;20053;-80
2022/05/05 19:13:58;;;;;;;2.25;1.98;;;;;;;;;;20818933;28;20470;-80
2022/05/05 19:24:00;;;;;;;2.78;1.67;;;;;;;;;;20835843;28;20081;-80
2022/05/05 19:34:02;;;;;;;2.13;1.92;;;;;;;;;;20835076;28;20061;-80
2022/05/05 19:44:04;;;;;;;2.38;1.70;;;;;;;;;;20816651;28;20049;-80
2022/05/05 19:54:06;;;;;;;2.58;2.00;;;;;;;;;;20816136;28;20045;-80
2022/05/05 20:04:07;;;;;;;2.38;1.80;;;;;;;;;;20814425;28;20053;-80
2022/05/05 20:14:09;;;;;;;1.55;1.45;;;;;;;;;;20831826;28;20064;-80
2022/05/05 20:24:11;;;;;;;2.00;1.90;;;;;;;;;;20797885;28;20376;-80
2022/05/05 20:34:13;;;;;;;1.50;1.40;;;;;;;;;;20812665;28;20057;-80
2022/05/05 20:44:15;;;;;;;2.15;1.80;;;;;;;;;;20829743;28;20053;-80
2022/05/05 20:54:17;;;;;;;2.03;1.73;;;;;;;;;;20828994;28;20045;-80
2022/05/05 21:04:19;;;;;;;2.15;1.85;;;;;;;;;;20828487;28;20061;-80
2022/05/05 21:14:21;;;;;;;1.77;1.55;;;;;;;;;;20793162;28;20057;-80
2022/05/05 21:34:43;;;;;;;1.90;1.70;;;;;;;;;;20810809;28;20053;-80
2022/05/05 21:44:46;;;;;;;2.15;1.85;;;;;;;;;;20825265;28;20045;-80
2022/05/05 21:54:47;;;;;;;1.85;1.70;;;;;;;;;;20824472;28;20111;-80
2022/05/05 22:04:49;;;;;;;2.00;1.80;;;;;;;;;;20824309;28;20045;-80
2022/05/05 22:14:51;;;;;;;1.88;1.65;;;;;;;;;;20823402;28;20057;-80
2022/05/05 22:24:52;;;;;;;1.98;1.77;;;;;;;;;;20823709;28;20057;-80
2022/05/05 22:34:54;;;;;;;2.17;1.98;;;;;;;;;;20839641;28;20045;-80
2022/05/05 22:44:56;;;;;;;2.33;2.08;;;;;;;;;;20838917;28;20111;-80
2022/05/05 22:54:57;;;;;;;2.65;1.90;;;;;;;;;;20820708;28;20087;-80
2022/05/05 23:04:59;;;;;;;2.30;2.10;;;;;;;;;;20819901;28;20056;-80
2022/05/05 23:15:01;;;;;;;2.85;2.10;;;;;;;;;;20819303;28;20057;-80
2022/05/05 23:25:03;;;;;;;2.65;1.90;;;;;;;;;;20818438;28;20058;-80
2022/05/05 23:45:25;;;;;;;2.15;1.85;;;;;;;;;;20832996;28;20415;-80
2022/05/05 23:55:26;;;;;;;2.30;1.90;;;;;;;;;;20816168;28;20487;-80
